Date,TemperatureHighF,TemperatureAvgF,TemperatureLowF,DewpointHighF,DewpointAvgF,DewpointLowF,HumidityHigh,HumidityAvg,HumidityLow,PressureMaxIn,PressureMinIn,WindSpeedMaxMPH,WindSpeedAvgMPH,GustSpeedMaxMPH,PrecipitationSumIn
2013-1-11,33.8,32.7,32.0,22.3,16.8,8.2,65,53,34,0.00,40.00,0,0,0,0.00
2013-1-12,37.9,35.7,32.5,31.5,28.2,22.1,78,74,65,0.00,40.00,0,0,0,0.00
2013-1-13,47.3,42.0,36.7,42.8,37.4,30.4,89,84,73,0.00,40.00,0,0,0,0.00
2013-1-14,54.5,46.9,37.8,41.4,27.6,9.9,75,51,27,0.00,40.00,0,0,4,0.00
2013-1-15,37.8,33.7,29.3,9.7,6.7,3.7,33,32,29,0.00,40.00,0,0,0,0.00
2013-1-16,30.0,29.1,26.6,19.4,13.8,3.6,64,53,33,0.00,40.00,0,0,0,0.00
2013-1-17,35.6,30.5,25.9,20.5,12.9,-1.3,66,50,30,0.00,40.00,0,0,0,0.00
2013-1-18,25.7,18.2,13.8,-1.5,-6.6,-9.9,33,32,30,0.00,40.00,0,0,7,0.00
2013-1-19,42.3,31.9,16.7,13.1,4.6,-8.0,34,31,28,0.00,40.00,4,0,11,0.00
2013-1-20,47.8,36.7,24.4,17.1,8.9,-2.0,36,31,28,0.00,40.00,0,0,8,0.00
2013-1-21,25.2,21.3,17.2,3.2,-3.0,-7.4,48,34,30,0.00,40.00,0,0,5,0.00
2013-1-22,21.2,16.1,8.4,3.7,-4.7,-14.1,52,39,32,0.00,40.00,0,0,7,0.00
2013-1-23,11.5,6.8,2.7,-11.4,-15.5,-19.3,34,34,34,0.00,40.00,0,0,6,0.00
2013-1-24,15.3,6.4,-1.8,-8.7,-16.0,-23.3,34,34,33,0.00,40.00,0,0,8,0.00
2013-1-25,19.4,11.8,3.4,-5.6,-11.7,-18.6,34,33,32,0.00,40.00,0,0,6,0.00
2013-1-26,19.6,12.7,5.9,-5.4,-10.2,-14.6,37,34,32,0.00,40.00,0,0,6,0.00
2013-1-27,24.4,15.2,6.8,-1.8,-8.9,-15.5,34,33,31,0.00,40.00,0,0,7,0.00
2013-1-28,26.8,20.1,13.6,11.3,-1.0,-10.1,57,40,30,0.00,40.00,0,0,0,0.00
2013-1-29,30.2,26.6,21.7,18.3,13.6,9.3,62,57,55,0.00,40.00,0,0,0,0.00
2013-1-30,55.6,43.9,29.5,52.7,35.1,18.1,93,72,54,0.00,40.00,4,1,10,0.00
2013-1-31,56.5,43.6,26.8,51.8,24.4,-0.4,88,50,28,0.00,40.00,2,0,12,0.00
2013-2-1,29.1,24.7,18.3,1.6,-1.9,-6.5,32,31,30,0.00,40.00,0,0,11,0.00
2013-2-2,25.3,20.4,13.1,-1.5,-5.1,-10.5,33,32,30,0.00,40.00,0,0,7,0.00
2013-2-3,23.7,21.1,17.8,6.8,1.8,-4.7,54,43,31,0.00,40.00,0,0,4,0.00
2013-2-4,26.4,20.1,15.1,6.3,-2.0,-8.3,54,38,30,0.00,40.00,1,0,13,0.00
2013-2-5,25.5,21.1,16.3,5.5,-3.4,-8.3,49,33,30,0.00,40.00,0,0,4,0.00
2013-2-6,34.2,25.6,20.7,12.2,4.7,-4.5,57,42,29,0.00,40.00,0,0,10,0.00
2013-2-7,25.0,20.2,12.0,-1.5,-5.2,-11.2,34,32,30,0.00,40.00,0,0,6,0.00
2013-2-8,28.9,25.2,18.0,21.0,8.9,-5.6,79,52,31,0.00,40.00,2,0,10,0.00
2013-2-9,17.6,14.8,9.7,0.5,-7.4,-13.0,49,36,33,0.00,40.00,2,0,10,0.00
2013-2-10,29.5,16.9,3.4,1.9,-7.3,-18.6,36,33,30,0.00,40.00,0,0,6,0.00
2013-2-11,37.0,26.6,14.9,28.2,12.3,-7.8,80,56,35,0.00,40.00,0,0,3,0.00
2013-2-12,39.0,33.3,27.5,28.2,14.8,5.7,86,50,31,0.00,40.00,0,0,8,0.00
2013-2-13,37.4,29.8,23.5,9.5,6.7,3.7,49,37,31,0.00,40.00,0,0,4,0.00
2013-2-14,37.9,32.2,24.6,9.7,4.8,0.0,40,31,28,0.00,40.00,0,0,8,0.00
2013-2-15,45.1,34.4,25.0,18.9,11.5,1.6,59,40,29,0.00,40.00,2,0,10,0.00
2013-3-10,37.2,34.1,29.7,18.7,12.8,8.8,59,42,31,0.00,40.00,1,0,6,0.00
2013-3-11,48.2,37.8,30.2,25.0,18.5,14.5,60,47,28,0.00,40.00,1,0,5,0.00
2013-3-12,51.8,44.5,37.6,45.9,35.2,25.3,87,71,45,0.00,40.00,4,1,8,0.00
2013-3-13,48.2,39.4,29.3,44.2,19.0,1.8,86,47,27,0.00,40.00,0,0,7,0.00
2013-3-14,33.1,27.8,19.2,4.3,1.0,-5.8,33,31,29,0.00,40.00,0,0,10,0.00
2013-3-15,36.1,25.3,16.5,6.3,-1.2,-8.1,32,31,28,0.00,40.00,0,0,8,0.00
2013-3-16,36.0,30.8,23.7,6.4,3.2,-2.4,33,30,28,0.00,40.00,0,0,6,0.00
2013-3-17,33.6,26.9,19.2,4.8,-0.1,-5.8,32,30,29,0.00,40.00,1,0,8,0.00
2013-3-18,34.9,24.8,13.3,8.8,-1.1,-10.3,48,32,29,0.00,40.00,1,0,5,0.00
2013-3-19,31.3,28.6,25.3,25.9,20.1,9.0,80,71,49,0.00,40.00,1,0,11,0.00
2013-3-20,34.2,27.5,21.2,15.8,6.6,-0.6,67,43,29,0.00,40.00,1,0,11,0.00
2013-3-21,34.5,26.9,19.9,13.6,5.6,-1.7,54,40,29,0.00,40.00,0,0,6,0.00
2013-3-22,37.0,30.1,23.2,11.8,4.0,-1.7,56,33,28,0.00,40.00,0,0,7,0.00
2013-3-23,39.0,31.1,23.2,8.8,3.6,-2.0,36,30,28,0.00,40.00,1,0,8,0.00
2013-3-24,42.4,33.7,25.9,13.3,5.9,-0.9,33,30,28,0.00,40.00,1,0,8,0.00
2013-3-25,38.8,33.1,27.1,13.1,8.8,4.5,44,36,31,0.00,40.00,2,0,10,0.00
2013-3-26,45.0,36.3,30.6,14.7,8.6,3.0,42,31,28,0.00,40.00,0,0,7,0.00
2013-3-27,48.4,37.8,25.0,17.2,9.3,-0.2,35,30,28,0.00,40.00,0,0,9,0.00
2013-3-28,44.4,38.3,32.2,19.6,14.1,8.6,56,38,29,0.00,40.00,0,0,8,0.00
2013-3-29,52.2,41.1,30.2,19.6,14.7,9.7,50,35,27,0.00,40.00,0,0,8,0.00
2013-3-30,52.0,42.7,31.8,19.6,13.3,4.5,40,30,27,0.00,40.00,1,0,8,0.00
2013-3-31,56.7,41.9,25.3,23.0,12.5,-0.4,44,30,27,0.00,40.00,1,0,7,0.00
2013-4-1,59.0,44.3,31.1,30.7,20.9,3.4,63,41,26,0.00,40.00,1,0,7,0.00
2013-4-2,37.4,30.8,25.0,7.3,2.7,-2.0,30,30,28,0.00,40.00,2,0,9,0.00
2013-4-3,42.1,34.7,25.7,12.9,5.9,-1.5,30,29,28,0.00,40.00,2,1,10,0.00
2013-4-4,51.3,38.2,24.6,19.2,8.9,-2.0,31,29,28,0.00,40.00,2,0,8,0.00
2013-4-5,55.2,42.1,33.4,21.9,12.3,5.7,32,29,27,0.00,40.00,1,0,6,0.00
2013-4-6,42.1,34.3,28.2,12.9,5.6,0.9,30,29,28,0.00,40.00,2,0,13,0.00
2013-4-7,52.3,38.2,23.5,21.4,9.5,-2.6,43,30,27,0.00,40.00,5,2,11,0.00
2013-4-8,59.7,49.1,39.2,28.2,22.6,16.7,57,37,26,0.00,40.00,1,0,6,0.00
2013-4-9,66.2,52.2,42.4,39.2,25.2,15.1,62,37,24,0.00,40.00,1,0,8,0.00
2013-4-10,60.4,49.0,42.8,34.3,27.5,18.9,61,45,26,0.00,40.00,1,0,6,0.00
2013-4-11,49.3,44.3,39.2,34.3,25.3,10.4,69,50,28,0.00,40.00,0,0,6,0.00
2013-4-12,39.0,35.1,33.3,27.5,20.2,9.3,75,55,31,0.00,40.00,3,0,9,0.00
2013-4-13,34.5,33.2,31.8,27.5,24.9,22.8,75,71,69,0.00,40.00,0,0,5,0.00
2013-4-18,61.7,53.9,48.2,25.5,21.1,16.7,36,28,25,0.00,40.00,2,1,7,0.00
2013-4-19,70.7,59.8,48.9,47.7,38.9,23.2,75,48,26,0.00,40.00,5,2,10,0.00
2013-4-20,62.2,51.5,40.6,48.9,27.9,11.7,70,42,27,0.00,40.00,4,0,9,0.00
2013-4-21,48.9,40.3,29.7,17.2,10.4,2.1,30,29,28,0.00,40.00,1,0,8,0.00
2013-4-22,53.1,39.2,28.2,19.9,12.1,4.8,48,33,27,0.00,40.00,1,0,8,0.00
2013-4-23,38.1,37.1,35.4,28.4,21.9,8.4,70,56,31,0.00,40.00,1,0,10,0.00
2013-4-24,69.4,52.2,37.0,37.0,29.1,21.6,81,47,24,0.00,40.00,4,1,9,0.00
2013-4-25,60.1,52.3,41.4,36.1,24.4,12.2,57,35,26,0.00,40.00,4,0,9,0.00
2013-4-26,59.2,46.7,35.2,24.3,16.9,7.7,46,30,26,0.00,40.00,1,0,8,0.00
2013-4-27,61.7,48.9,32.7,26.6,21.7,14.0,55,36,25,0.00,40.00,0,0,6,0.00
2013-4-28,66.0,52.3,35.8,29.1,21.6,12.9,50,31,25,0.00,40.00,0,0,6,0.00
2013-4-29,66.6,54.2,42.8,29.1,23.6,14.0,48,31,24,0.00,40.00,0,0,5,0.00
2013-4-30,65.3,58.3,45.1,28.6,23.7,14.7,29,26,25,0.00,40.00,0,0,6,0.00
2013-5-1,65.8,52.7,34.9,29.1,20.8,10.0,45,29,25,0.00,40.00,0,0,6,0.00
2013-5-2,73.0,53.7,39.4,33.1,22.5,12.9,48,30,23,0.00,40.00,1,0,8,0.00
2013-5-3,56.5,47.5,38.3,25.3,20.2,15.1,54,35,27,0.00,40.00,2,0,8,0.00
2013-5-4,58.1,46.1,35.1,28.2,20.5,13.3,55,38,26,0.00,40.00,0,0,8,0.00
2013-5-5,56.1,45.5,32.9,28.2,20.3,15.6,57,38,27,0.00,40.00,0,0,9,0.00
2013-5-6,65.7,48.6,34.0,30.0,25.0,19.6,61,42,25,0.00,40.00,0,0,6,0.00
2013-5-7,74.1,60.0,41.5,36.0,30.9,26.1,55,36,23,0.00,40.00,0,0,5,0.00
2013-5-8,69.8,60.5,49.6,45.3,38.6,32.4,57,45,27,0.00,40.00,1,0,6,0.00
2013-5-9,63.1,57.2,54.3,50.7,44.4,41.5,77,63,49,0.00,40.00,0,0,0,0.00
2013-5-10,75.9,63.4,51.3,53.2,38.7,28.8,82,46,22,0.00,40.00,0,0,4,0.00
2013-5-11,62.2,57.9,55.2,45.1,37.4,30.0,62,47,30,0.00,40.00,0,0,4,0.00
2013-5-25,48.4,43.6,38.7,39.2,33.0,28.2,71,66,64,0.00,40.00,0,0,6,0.00
2013-5-26,54.7,45.3,36.9,32.4,23.6,16.9,67,45,27,0.00,40.00,2,0,9,0.00
2013-5-27,67.6,54.5,38.5,29.5,25.7,20.3,56,35,24,0.00,40.00,2,0,8,0.00
2013-5-28,71.1,57.3,40.8,32.2,27.8,24.4,53,34,23,0.00,40.00,1,0,6,0.00
2013-5-29,65.1,59.2,55.2,50.4,44.2,31.3,69,58,40,0.00,40.00,0,0,0,0.00
2013-5-30,77.0,64.6,59.5,58.5,50.2,39.6,83,63,27,0.00,40.00,0,0,0,0.00
2013-5-31,88.3,75.9,60.8,53.1,44.4,35.6,60,36,22,0.00,40.00,0,0,6,0.00
2013-6-1,88.0,76.7,63.9,46.0,41.7,35.6,48,30,22,0.00,40.00,1,0,6,0.00
2013-6-2,86.4,75.1,65.8,50.2,43.1,37.4,50,33,22,0.00,40.00,4,1,10,0.00
2013-6-3,71.6,65.9,58.8,52.2,45.2,26.2,63,48,28,0.00,40.00,0,0,4,0.00
2013-6-4,66.4,59.0,46.6,29.3,26.5,22.1,46,29,24,0.00,40.00,1,0,6,0.00
2013-6-5,70.3,60.3,46.4,34.3,29.1,24.1,52,32,23,0.00,40.00,0,0,5,0.00
2013-6-6,71.2,62.0,53.1,34.5,28.1,22.8,43,28,23,0.00,40.00,1,0,5,0.00
2013-6-7,56.8,53.5,50.7,44.2,40.4,35.2,77,62,44,0.00,40.00,0,0,3,0.00
2013-6-8,72.0,59.7,50.2,54.3,44.7,39.0,87,62,33,0.00,40.00,0,0,7,0.00
2013-6-9,74.5,64.5,53.8,43.0,36.5,29.1,60,38,23,0.00,40.00,0,0,5,0.00
2013-6-10,68.5,60.0,53.6,43.5,38.4,30.2,62,46,26,0.00,40.00,0,0,5,0.00
2013-6-11,59.2,55.7,53.4,47.8,44.1,40.8,76,66,52,0.00,40.00,0,0,5,0.00
2013-6-12,66.4,59.1,53.8,51.3,38.3,28.2,79,50,27,0.00,40.00,2,0,8,0.00
2013-6-13,61.5,54.1,49.1,41.9,38.3,33.6,65,55,43,0.00,40.00,0,0,4,0.00
2013-6-14,65.5,55.9,48.4,47.3,39.7,32.7,83,58,30,0.00,40.00,0,0,5,0.00
2013-6-15,72.7,62.4,50.0,49.3,34.0,25.5,60,37,23,0.00,40.00,0,0,8,0.00
2013-6-16,71.1,63.0,52.5,43.7,33.8,29.8,48,35,23,0.00,40.00,0,0,5,0.00
2013-6-17,81.5,67.0,56.7,46.4,40.8,33.4,59,41,21,0.00,40.00,1,0,8,0.00
2013-6-18,71.1,60.3,55.8,50.7,44.8,39.6,67,58,33,0.00,40.00,1,0,6,0.00
2013-6-19,69.1,60.9,53.1,48.7,35.7,27.0,79,44,24,0.00,40.00,0,0,5,0.00
2013-6-20,74.3,63.4,48.7,40.1,33.2,28.4,57,35,23,0.00,40.00,0,0,0,0.00
2013-6-21,78.8,67.8,55.8,41.0,36.7,32.7,49,33,22,0.00,40.00,0,0,0,0.00
2013-6-22,79.9,69.6,59.5,40.1,37.3,30.9,47,32,22,0.00,40.00,0,0,0,0.00
2013-6-23,84.9,73.1,61.7,47.1,41.0,30.4,47,33,23,0.00,40.00,0,0,0,0.00
2013-6-24,87.3,76.8,67.1,53.6,47.1,39.6,57,38,22,0.00,40.00,0,0,0,0.00
2013-6-25,86.0,75.8,65.5,52.0,46.2,39.4,59,38,22,0.00,40.00,0,0,0,0.00
2013-6-26,80.2,72.8,67.3,52.3,48.3,42.1,52,43,26,0.00,40.00,0,0,0,0.00
2013-6-27,69.1,64.3,61.0,50.7,48.1,46.0,69,56,46,0.00,40.00,0,0,0,0.00
2013-6-28,77.2,67.3,58.5,66.9,53.5,47.7,88,64,36,0.00,40.00,0,0,0,0.00
2013-6-29,79.3,71.7,67.1,56.8,49.1,39.4,67,47,26,0.00,40.00,0,0,0,0.00
2013-6-30,82.0,73.3,66.0,54.1,49.8,47.1,60,45,31,0.00,40.00,0,0,0,0.00
2013-7-1,78.1,71.6,68.2,60.8,56.5,49.8,70,59,45,0.00,40.00,0,0,0,0.00
2013-7-2,77.9,71.3,62.8,66.7,57.1,45.9,90,63,43,0.00,40.00,0,0,0,0.00
2013-7-3,83.1,72.5,60.4,61.0,52.2,46.0,77,51,33,0.00,40.00,0,0,0,0.00
2013-7-4,87.6,78.7,69.3,63.5,53.3,43.5,77,45,22,0.00,40.00,0,0,0,0.00
2013-7-5,88.2,80.6,72.0,58.1,50.5,42.6,58,37,22,0.00,40.00,0,0,0,0.00
2013-7-6,86.2,78.6,71.4,57.6,50.4,41.5,57,39,23,0.00,40.00,0,0,0,0.00
2013-7-7,85.8,75.6,67.1,58.1,51.2,45.3,57,44,25,0.00,40.00,0,0,0,0.00
2013-7-8,82.9,73.8,66.6,64.4,56.0,46.6,77,55,36,0.00,40.00,0,0,0,0.00
2013-7-9,70.0,66.1,62.6,55.2,51.0,47.5,74,59,49,0.00,40.00,0,0,0,0.00
2013-7-10,80.2,70.8,64.0,67.5,57.2,48.0,86,64,41,0.00,40.00,0,0,0,0.00
2013-7-11,76.8,71.8,68.4,67.3,60.9,52.2,87,70,47,0.00,40.00,0,0,0,0.00
2013-7-12,70.7,67.5,64.9,56.8,41.5,31.1,70,40,26,0.00,40.00,0,0,0,0.00
2013-7-13,73.8,67.7,63.0,54.3,49.3,40.5,65,52,41,0.00,40.00,0,0,0,0.00
2013-7-14,84.6,75.2,66.4,67.5,54.8,42.3,85,54,23,0.00,40.00,0,0,0,0.00
2013-7-15,86.2,76.6,67.6,64.6,54.2,42.6,68,49,22,0.00,40.00,0,0,0,0.00
2013-7-16,87.3,77.3,65.8,58.3,47.9,38.1,64,39,22,0.00,40.00,0,0,0,0.00
2013-7-17,88.7,79.2,68.2,56.1,48.5,42.6,58,37,22,0.00,40.00,0,0,0,0.00
2013-7-18,88.3,80.3,72.9,57.7,48.5,41.0,52,35,22,0.00,40.00,0,0,0,0.00
2013-7-19,92.1,82.3,71.2,59.5,51.1,44.2,60,37,21,0.00,40.00,0,0,0,0.00
2013-7-20,88.5,81.0,73.0,59.2,50.3,41.4,53,36,22,0.00,40.00,0,0,0,0.00
2013-7-21,80.2,72.8,66.2,48.7,41.7,36.9,49,34,24,0.00,40.00,0,0,0,0.00
2013-7-22,78.8,70.4,63.7,54.1,47.8,37.4,60,46,24,0.00,40.00,0,0,0,0.00
2013-7-23,76.8,69.5,66.9,68.7,60.0,49.1,87,73,51,0.00,40.00,0,0,0,0.00
2013-7-24,79.7,72.5,64.0,69.1,51.6,29.3,87,54,24,0.00,40.00,0,0,0,0.00
2013-7-25,63.7,57.7,55.4,49.6,36.2,25.2,80,47,27,0.00,40.00,0,0,0,0.00
2013-7-26,66.9,61.0,55.8,58.6,54.4,48.6,92,80,63,0.00,40.00,0,0,0,0.00
2013-7-27,78.6,68.1,56.5,56.1,44.8,37.4,75,47,24,0.00,40.00,0,0,0,0.00
2013-7-28,76.5,68.6,63.3,57.6,51.0,46.0,74,55,38,0.00,40.00,0,0,0,0.00
2013-7-29,78.3,69.4,64.6,56.1,51.9,47.1,68,55,35,0.00,40.00,0,0,0,0.00
2013-7-30,75.4,67.6,57.7,54.9,43.0,33.4,73,45,23,0.00,40.00,0,0,0,0.00
2013-7-31,76.5,68.0,57.0,47.1,39.7,33.8,60,38,22,0.00,40.00,0,0,0,0.00
2013-8-1,77.4,67.8,60.4,51.6,43.5,34.9,59,43,24,0.00,40.00,0,0,0,0.00
2013-8-2,76.3,68.0,61.7,57.4,44.6,34.0,74,46,25,0.00,40.00,0,0,0,0.00
2013-8-3,73.0,66.7,61.3,49.8,44.2,36.1,62,46,28,0.00,40.00,0,0,0,0.00
2013-8-4,75.0,65.4,56.1,43.7,37.6,31.5,54,38,23,0.00,40.00,0,0,0,0.00
2013-8-5,70.3,61.2,52.3,39.7,31.8,23.7,54,35,23,0.00,40.00,0,0,0,0.00
2013-8-6,71.8,61.7,48.2,39.2,31.6,28.2,54,34,23,0.00,40.00,0,0,0,0.00
2013-8-7,75.7,65.2,54.0,45.5,35.2,28.6,58,35,22,0.00,40.00,0,0,0,0.00
2013-8-8,74.8,67.7,62.2,55.9,48.4,30.7,64,51,30,0.00,40.00,0,0,0,0.00
2013-8-9,70.7,68.6,67.1,68.0,60.8,52.7,92,77,57,0.00,40.00,0,0,0,0.00
2013-8-10,77.2,69.5,60.4,65.8,47.7,31.6,92,53,22,0.00,40.00,0,0,0,0.00
2013-8-11,73.2,64.2,52.2,42.1,35.1,31.3,57,36,23,0.00,40.00,0,0,0,0.00
2013-8-12,76.3,67.2,57.4,47.1,38.6,32.9,59,38,22,0.00,40.00,0,0,0,0.00
2013-8-13,69.1,65.1,62.2,52.9,47.2,43.3,60,52,42,0.00,40.00,0,0,0,0.00
2013-8-14,69.3,63.2,57.0,48.9,36.2,28.2,62,39,24,0.00,40.00,0,0,0,0.00
2013-8-15,71.1,61.6,50.9,39.0,32.8,28.0,54,36,23,0.00,40.00,0,0,0,0.00
2013-8-16,72.9,63.4,52.0,41.9,34.7,30.4,54,36,23,0.00,40.00,0,0,0,0.00
2013-8-17,74.5,65.1,53.2,43.5,36.6,30.6,57,37,23,0.00,40.00,0,0,0,0.00
2013-8-18,74.3,65.2,57.4,46.6,40.0,34.2,56,41,25,0.00,40.00,0,0,0,0.00
2013-8-19,75.9,67.2,56.5,48.6,39.8,35.2,59,39,25,0.00,40.00,0,0,0,0.00
2013-8-20,80.1,70.3,60.1,47.5,40.8,34.9,56,36,21,0.00,40.00,0,0,0,0.00
2013-8-21,82.6,71.3,59.0,48.9,41.8,36.9,55,37,23,0.00,40.00,0,0,0,0.00
2013-8-22,81.0,72.3,64.2,51.3,45.5,39.4,53,39,23,0.00,40.00,0,0,0,0.00
2013-8-23,75.2,68.6,59.9,52.3,39.8,27.9,58,37,22,0.00,40.00,0,0,0,0.00
2013-8-24,72.0,62.2,50.9,35.4,30.0,24.8,51,31,23,0.00,40.00,0,0,0,0.00
2013-8-25,77.2,64.3,48.9,41.7,32.7,27.3,54,33,22,0.00,40.00,0,0,0,0.00
2013-8-26,75.4,68.1,62.2,44.6,38.7,28.9,48,35,25,0.00,40.00,0,0,0,0.00
2013-8-27,77.0,69.6,63.7,60.4,49.3,41.4,76,50,30,0.00,40.00,0,0,0,0.00
2013-8-28,79.7,68.2,59.7,53.2,45.0,36.7,61,45,24,0.00,40.00,0,0,0,0.00
2013-8-29,62.8,61.4,58.5,50.5,45.8,40.3,65,57,49,0.00,40.00,0,0,0,0.00
2013-8-30,76.3,66.3,58.3,49.5,44.0,38.8,59,46,27,0.00,40.00,0,0,0,0.00
2013-8-31,76.3,70.3,64.9,57.9,53.4,49.5,69,56,45,0.00,40.00,0,0,0,0.00
2013-9-1,72.5,68.8,66.4,67.5,58.9,51.1,85,71,55,0.00,40.00,0,0,0,0.00
2013-9-2,76.5,70.1,66.7,64.6,59.8,52.3,89,72,48,0.00,40.00,0,0,0,0.00
2013-9-3,76.1,69.6,61.2,60.8,52.4,42.4,78,56,36,0.00,40.00,0,0,0,0.00
2013-9-4,74.5,65.0,55.2,46.0,37.0,29.8,60,38,23,0.00,40.00,0,0,0,0.00
2013-9-5,65.3,59.9,49.5,47.8,35.4,24.4,62,41,25,0.00,40.00,0,0,0,0.00
2013-9-6,64.2,53.8,41.5,31.6,26.1,21.0,55,36,25,0.00,40.00,0,0,0,0.00
2013-9-7,73.4,60.7,47.7,33.3,29.2,23.2,46,31,23,0.00,40.00,0,0,0,0.00
2013-9-8,69.4,61.4,48.6,42.8,32.7,16.9,55,35,24,0.00,40.00,0,0,0,0.00
2013-9-9,65.5,54.2,40.8,30.6,25.1,18.1,52,34,25,0.00,40.00,0,0,0,0.00
2013-9-10,69.6,62.2,52.7,56.8,45.0,30.0,69,54,40,0.00,40.00,0,0,0,0.00
2013-9-11,88.5,76.0,65.1,67.1,53.0,42.6,85,50,22,0.00,40.00,0,0,0,0.00
2013-9-12,82.2,73.6,65.8,55.6,49.5,41.9,60,44,26,0.00,40.00,0,0,0,0.00
2013-9-13,72.5,65.2,57.2,60.6,50.0,38.3,82,59,39,0.00,40.00,0,0,0,0.00
2013-9-14,62.6,57.3,50.7,38.3,34.8,30.4,53,43,30,0.00,40.00,0,0,0,0.00
2013-9-15,65.7,55.3,44.6,40.5,30.8,24.8,62,42,25,0.00,40.00,0,0,0,0.00
2013-9-16,61.7,54.6,46.0,41.9,31.9,15.6,59,43,28,0.00,40.00,0,0,0,0.00
2013-9-17,57.4,47.6,36.9,26.4,20.9,14.5,51,36,26,0.00,40.00,0,0,0,0.00
2013-9-18,66.2,52.7,37.9,35.8,26.7,22.6,59,39,24,0.00,40.00,0,0,0,0.00
2013-9-19,70.7,58.0,44.1,37.6,31.3,27.9,57,38,23,0.00,40.00,0,0,0,0.00
2013-9-20,73.0,59.4,46.4,41.7,34.1,29.7,60,41,23,0.00,40.00,0,0,0,0.00
2013-9-21,70.0,61.5,52.3,48.9,42.3,35.2,65,51,29,0.00,40.00,0,0,0,0.00
2013-9-22,65.8,60.6,50.0,52.0,40.8,27.3,70,50,27,0.00,40.00,0,0,0,0.00
2013-9-23,57.7,49.5,42.4,29.3,23.6,19.4,52,37,26,0.00,40.00,0,0,0,0.00
2013-9-24,60.4,49.6,38.8,27.7,23.8,20.5,54,38,26,0.00,40.00,0,0,0,0.00
2013-9-25,61.5,51.2,41.2,33.8,28.0,23.7,58,42,28,0.00,40.00,0,0,0,0.00
2013-9-26,60.8,54.1,50.0,34.2,29.9,23.9,52,40,25,0.00,40.00,0,0,0,0.00
2013-9-27,59.7,54.2,47.3,36.5,33.3,28.2,55,46,31,0.00,40.00,0,0,0,0.00
2013-9-28,66.2,53.6,43.5,41.7,32.4,27.9,64,46,27,0.00,40.00,0,0,0,0.00
2013-9-29,61.9,50.7,43.0,42.3,31.0,24.3,72,49,25,0.00,40.00,0,0,0,0.00
2013-9-30,61.7,52.0,46.2,39.9,32.8,25.2,70,50,25,0.00,40.00,0,0,0,0.00
2013-10-1,68.5,54.9,42.4,41.0,32.6,28.6,65,45,24,0.00,40.00,0,0,0,0.00
2013-10-2,72.3,60.9,50.5,43.2,37.4,32.7,60,44,25,0.00,40.00,0,0,0,0.00
2013-10-3,69.3,59.0,49.3,39.7,33.2,25.0,58,40,24,0.00,40.00,0,0,0,0.00
2013-10-4,58.8,54.4,48.4,44.1,38.6,30.9,65,55,43,0.00,40.00,0,0,0,0.00
2013-10-5,63.9,58.5,54.1,48.0,41.9,35.6,75,56,37,0.00,40.00,0,0,0,0.00
2013-10-6,58.1,53.7,51.6,49.3,45.2,40.6,85,73,52,0.00,40.00,0,0,0,0.00
2013-10-7,70.5,60.3,53.6,63.5,50.0,41.9,89,71,49,0.00,40.00,0,0,0,0.00
2013-10-8,59.9,53.0,43.9,41.7,28.2,19.2,57,40,26,0.00,40.00,0,0,0,0.00
2013-10-9,57.2,47.1,37.9,30.6,24.1,20.8,57,42,26,0.00,40.00,0,0,0,0.00
2013-10-10,57.6,47.9,38.1,38.3,30.7,23.9,64,52,39,0.00,40.00,0,0,0,0.00
2013-10-11,64.4,53.7,46.0,38.1,31.2,21.2,68,45,25,0.00,40.00,0,0,0,0.00
2013-10-12,56.1,50.7,44.6,44.1,35.3,28.2,69,56,44,0.00,40.00,0,0,0,0.00
2013-10-13,55.0,48.3,39.2,36.7,29.4,22.5,66,49,29,0.00,40.00,0,0,0,0.00
2013-10-14,57.9,45.1,32.7,35.2,24.4,19.6,65,46,26,0.00,40.00,0,0,0,0.00
2013-10-15,62.4,52.6,44.8,36.9,32.2,27.9,62,47,30,0.00,40.00,0,0,0,0.00
2013-10-16,57.4,51.7,45.9,44.1,36.9,31.8,74,57,45,0.00,40.00,0,0,0,0.00
2013-10-17,66.2,56.8,48.7,50.0,41.2,36.7,79,57,38,0.00,40.00,0,0,0,0.00
2013-10-18,62.2,56.3,45.9,51.3,34.7,20.5,80,48,25,0.00,40.00,0,0,0,0.00
2013-10-19,61.2,50.8,40.5,29.5,23.9,21.0,52,36,25,0.00,40.00,0,0,0,0.00
2013-10-20,56.5,49.4,39.9,34.9,24.2,12.0,62,39,27,0.00,40.00,0,0,0,0.00
2013-10-21,60.1,47.6,35.4,25.2,20.6,14.0,53,35,26,0.00,40.00,0,0,0,0.00
2013-10-22,62.2,50.5,40.3,36.9,26.4,17.4,60,41,25,0.00,40.00,0,0,0,0.00
2013-10-23,47.1,41.5,33.6,22.1,17.0,13.3,54,38,29,0.00,40.00,0,0,0,0.00
2013-10-24,49.5,41.3,34.0,17.8,14.5,9.7,46,34,28,0.00,40.00,0,0,0,0.00
2013-10-25,45.0,37.5,30.2,18.0,10.7,5.5,47,33,29,0.00,40.00,0,0,0,0.00
2013-10-26,50.4,40.0,28.4,18.5,13.6,5.7,49,34,28,0.00,40.00,0,0,0,0.00
2013-10-27,50.2,43.9,37.2,24.4,16.8,9.3,53,34,28,0.00,40.00,0,0,0,0.00
2013-10-28,54.0,41.4,31.3,20.8,13.8,6.3,47,33,27,0.00,40.00,0,0,0,0.00
2013-10-29,43.7,33.8,24.8,13.6,7.0,1.8,41,32,28,0.00,40.00,0,0,0,0.00
2013-10-30,46.6,36.0,28.8,28.6,19.2,5.0,60,50,35,0.00,40.00,0,0,0,0.00
2013-10-31,57.0,44.2,30.6,47.8,31.9,17.8,73,62,56,0.00,40.00,0,0,0,0.00
2013-11-1,65.3,59.7,54.1,51.3,41.0,30.2,78,51,30,0.00,40.00,0,0,0,0.00
2013-11-2,60.8,51.9,44.2,36.3,28.1,19.2,60,42,25,0.00,40.00,0,0,0,0.00
2013-11-3,47.8,37.8,28.6,31.5,13.7,1.0,55,38,28,0.00,40.00,0,0,0,0.00
2013-11-4,37.0,29.3,23.0,7.0,1.6,-2.6,34,30,28,0.00,40.00,0,0,0,0.00
2013-11-5,44.4,33.2,20.8,14.2,8.1,-0.8,48,35,29,0.00,40.00,0,0,0,0.00
2013-11-6,55.2,46.1,35.4,32.5,21.0,9.5,52,38,27,0.00,40.00,0,0,0,0.00
2013-11-7,61.3,50.4,35.4,43.5,35.0,20.8,62,56,39,0.00,40.00,0,0,0,0.00
2013-11-8,43.3,35.2,28.9,20.5,12.1,2.5,55,39,29,0.00,40.00,0,0,0,0.00
2013-11-9,40.6,34.2,26.1,11.7,7.0,2.1,35,31,28,0.00,40.00,0,0,0,0.00
2013-11-10,50.5,41.3,36.1,31.5,17.4,8.4,63,39,28,0.00,40.00,0,0,0,0.00
2013-11-11,46.4,40.6,33.8,16.0,11.5,6.4,31,30,29,0.00,40.00,0,0,0,0.00
2013-11-12,43.5,32.3,23.2,23.0,9.1,-2.9,57,38,29,0.00,40.00,0,0,0,0.00
2013-11-13,31.1,24.7,19.2,3.4,-1.2,-4.5,35,32,30,0.00,40.00,0,0,0,0.00
2013-11-14,44.8,34.5,24.6,14.5,5.8,-2.0,31,29,28,0.00,40.00,0,0,0,0.00
2013-11-15,55.6,42.2,31.1,22.1,11.9,3.4,30,29,27,0.00,40.00,0,0,0,0.00
2013-11-16,53.2,42.1,33.8,20.1,12.8,6.4,34,30,27,0.00,40.00,0,0,0,0.00
2013-11-17,51.4,41.6,29.8,35.4,21.8,7.2,65,46,30,0.00,40.00,0,0,0,0.00
2013-11-18,58.1,54.2,45.9,54.9,47.8,34.7,89,79,65,0.00,40.00,0,0,0,0.00
2013-11-23,39.9,33.5,25.0,12.7,6.0,-2.0,39,31,28,0.00,40.00,0,0,0,0.00
2013-11-24,25.0,19.7,15.8,-1.5,-5.4,-8.7,34,32,30,0.00,40.00,0,0,0,0.00
2013-11-25,27.5,20.2,11.7,0.1,-5.2,-11.2,34,32,30,0.00,40.00,0,0,0,0.00
2013-11-26,37.0,32.2,26.4,23.9,6.3,-0.8,60,34,28,0.00,40.00,0,0,0,0.00
2013-11-27,57.2,47.4,33.6,55.6,42.7,23.2,95,84,61,0.00,40.00,0,0,0,0.00
2013-11-28,33.3,26.6,20.1,22.8,3.1,-4.9,65,37,30,0.00,40.00,0,0,0,0.00
2013-11-29,28.6,22.4,16.3,1.0,-3.3,-8.3,35,31,30,0.00,40.00,0,0,0,0.00
2013-11-30,28.0,20.0,9.1,1.2,-4.7,-12.3,39,33,30,0.00,40.00,0,0,0,0.00
2013-12-1,32.4,30.0,26.6,23.7,15.2,1.2,70,55,33,0.00,40.00,0,0,0,0.00
2013-12-2,35.6,33.5,32.0,28.4,25.9,23.7,76,73,70,0.00,40.00,0,0,0,0.00
2013-12-3,42.6,33.7,27.7,29.3,22.3,14.7,81,65,32,0.00,40.00,0,0,0,0.00
2013-12-4,38.8,30.4,24.6,20.7,13.8,7.9,67,52,31,0.00,40.00,0,0,0,0.00
2013-12-5,45.7,36.2,26.4,38.7,23.3,12.9,79,59,49,0.00,40.00,0,0,0,0.00
2013-12-6,51.4,44.7,30.7,48.4,36.0,19.4,90,73,51,0.00,40.00,0,0,0,0.00
2013-12-7,34.2,29.1,21.9,23.5,15.1,7.7,71,56,37,0.00,40.00,0,0,0,0.00
2013-12-8,27.3,23.8,18.0,9.1,2.3,-2.0,57,40,30,0.00,40.00,0,0,0,0.00
2013-12-9,34.5,28.2,22.3,24.6,15.5,-2.2,72,59,30,0.00,40.00,0,0,0,0.00
2013-12-10,30.2,27.4,19.4,23.7,18.1,3.9,77,68,49,0.00,40.00,0,0,0,0.00
2013-12-11,27.5,20.9,16.7,4.1,1.4,-1.5,53,43,33,0.00,40.00,0,0,0,0.00
2013-12-12,20.1,16.1,10.2,2.7,-5.3,-12.5,51,38,32,0.00,40.00,0,0,0,0.00
2013-12-13,25.3,17.3,9.9,-1.5,-6.8,-12.8,38,33,30,0.00,40.00,0,0,0,0.00
2013-12-14,23.5,11.5,5.9,12.4,-9.0,-16.4,62,39,33,0.00,40.00,0,0,0,0.00
2013-12-15,29.7,23.8,19.0,27.3,16.9,9.1,91,75,63,0.00,40.00,0,0,0,0.00
2013-12-16,22.6,18.4,10.2,10.2,1.2,-7.1,64,48,34,0.00,40.00,0,0,0,0.00
2013-12-17,14.9,8.9,-1.1,3.6,-5.7,-15.5,60,51,36,0.00,40.00,0,0,0,0.00
2013-12-18,28.0,20.1,11.5,10.2,5.6,0.0,60,53,40,0.00,40.00,0,0,0,0.00
2013-12-19,36.3,28.6,20.1,9.9,7.4,5.0,53,41,31,0.00,40.00,0,0,0,0.00
2013-12-20,46.2,37.0,28.2,18.1,12.6,7.0,49,37,29,0.00,40.00,0,0,0,0.00
2013-12-21,51.1,44.0,37.4,30.4,24.0,11.8,56,45,33,0.00,40.00,0,0,0,0.00
2013-12-22,49.1,39.1,30.9,39.9,30.1,24.3,80,70,56,0.00,40.00,0,0,0,0.00
2013-12-23,32.0,30.3,28.9,28.2,26.3,24.4,87,85,79,0.00,40.00,0,0,0,0.00
2013-12-24,32.2,28.2,21.7,28.4,8.4,-2.2,86,45,30,0.00,40.00,0,0,0,0.00
2013-12-25,21.7,15.2,10.6,-2.2,-8.8,-12.1,34,33,32,0.00,40.00,0,0,0,0.00
2013-12-26,28.9,20.9,11.8,12.6,2.6,-11.2,58,45,32,0.00,40.00,0,0,0,0.00
2013-12-27,30.2,23.7,18.0,8.2,3.7,-0.9,58,43,32,0.00,40.00,0,0,0,0.00
2013-12-28,40.1,30.0,21.0,11.1,6.2,-0.4,49,37,30,0.00,40.00,0,0,0,0.00
2013-12-29,36.9,32.8,27.5,27.9,14.9,4.5,82,49,33,0.00,40.00,0,0,0,0.00
2013-12-30,36.5,28.6,16.2,28.9,11.8,-8.5,82,53,29,0.00,40.00,0,0,0,0.00
2013-12-31,20.8,14.9,9.9,-4.4,-8.7,-12.8,38,33,32,0.00,40.00,0,0,0,0.00
2014-1-1,23.2,17.1,10.9,-2.9,-7.3,-11.9,35,32,31,0.00,40.00,0,0,0,0.00
2014-1-2,17.8,8.2,-3.6,-0.6,-7.2,-17.1,52,49,35,0.00,40.00,0,0,0,0.00